sensor_id;sensor_type;location;lat;lon;timestamp;P1;durP1;ratioP1;P2;durP2;ratioP2
13185;SDS011;6658;53.080;7.428;2023-07-02T00:00:53;1.60;;;1.43;;
13185;SDS011;6658;53.080;7.428;2023-07-02T00:03:28;2.30;;;1.67;;
13185;SDS011;6658;53.080;7.428;2023-07-02T00:05:54;4.20;;;1.90;;
13185;SDS011;6658;53.080;7.428;2023-07-02T00:08:21;2.37;;;1.97;;
13185;SDS011;6658;53.080;7.428;2023-07-02T00:10:47;2.20;;;1.83;;
13185;SDS011;6658;53.080;7.428;2023-07-02T00:13:16;2.83;;;1.90;;
13185;SDS011;6658;53.080;7.428;2023-07-02T00:15:42;2.43;;;1.97;;
13185;SDS011;6658;53.080;7.428;2023-07-02T00:18:07;1.90;;;1.57;;
13185;SDS011;6658;53.080;7.428;2023-07-02T00:20:54;2.30;;;1.93;;
13185;SDS011;6658;53.080;7.428;2023-07-02T00:26:29;3.30;;;2.07;;
13185;SDS011;6658;53.080;7.428;2023-07-02T00:28:58;2.87;;;2.20;;
13185;SDS011;6658;53.080;7.428;2023-07-02T00:31:29;4.50;;;2.57;;
13185;SDS011;6658;53.080;7.428;2023-07-02T00:33:54;4.60;;;2.60;;
13185;SDS011;6658;53.080;7.428;2023-07-02T00:36:20;5.37;;;2.23;;
13185;SDS011;6658;53.080;7.428;2023-07-02T00:38:49;5.63;;;2.80;;
13185;SDS011;6658;53.080;7.428;2023-07-02T00:41:15;3.33;;;2.50;;
13185;SDS011;6658;53.080;7.428;2023-07-02T00:43:41;3.63;;;2.43;;
13185;SDS011;6658;53.080;7.428;2023-07-02T00:46:13;4.53;;;2.87;;
13185;SDS011;6658;53.080;7.428;2023-07-02T00:48:51;8.37;;;3.60;;
13185;SDS011;6658;53.080;7.428;2023-07-02T00:51:27;5.43;;;3.00;;
13185;SDS011;6658;53.080;7.428;2023-07-02T00:53:54;5.90;;;3.00;;
13185;SDS011;6658;53.080;7.428;2023-07-02T00:56:21;4.10;;;3.00;;
13185;SDS011;6658;53.080;7.428;2023-07-02T00:58:51;4.30;;;3.20;;
13185;SDS011;6658;53.080;7.428;2023-07-02T01:01:19;5.03;;;3.00;;
13185;SDS011;6658;53.080;7.428;2023-07-02T01:06:22;6.43;;;3.30;;
13185;SDS011;6658;53.080;7.428;2023-07-02T01:09:00;5.70;;;3.17;;
13185;SDS011;6658;53.080;7.428;2023-07-02T01:11:32;4.60;;;2.83;;
13185;SDS011;6658;53.080;7.428;2023-07-02T01:14:25;4.47;;;3.10;;
13185;SDS011;6658;53.080;7.428;2023-07-02T01:16:55;6.40;;;3.10;;
13185;SDS011;6658;53.080;7.428;2023-07-02T01:22:07;5.40;;;3.23;;
13185;SDS011;6658;53.080;7.428;2023-07-02T01:32:20;4.43;;;3.20;;
13185;SDS011;6658;53.080;7.428;2023-07-02T01:34:52;6.53;;;3.17;;
13185;SDS011;6658;53.080;7.428;2023-07-02T01:37:27;8.87;;;3.90;;
13185;SDS011;6658;53.080;7.428;2023-07-02T01:39:53;5.40;;;3.60;;
13185;SDS011;6658;53.080;7.428;2023-07-02T01:42:19;5.03;;;3.53;;
13185;SDS011;6658;53.080;7.428;2023-07-02T01:44:58;4.90;;;3.60;;
13185;SDS011;6658;53.080;7.428;2023-07-02T01:47:24;6.07;;;4.00;;
13185;SDS011;6658;53.080;7.428;2023-07-02T01:50:03;6.60;;;3.93;;
13185;SDS011;6658;53.080;7.428;2023-07-02T01:52:33;8.33;;;4.33;;
13185;SDS011;6658;53.080;7.428;2023-07-02T01:55:02;7.33;;;3.90;;
13185;SDS011;6658;53.080;7.428;2023-07-02T01:57:28;7.27;;;3.80;;
13185;SDS011;6658;53.080;7.428;2023-07-02T01:59:55;8.30;;;4.17;;
13185;SDS011;6658;53.080;7.428;2023-07-02T02:02:21;5.47;;;3.77;;
13185;SDS011;6658;53.080;7.428;2023-07-02T02:04:56;8.20;;;4.07;;
13185;SDS011;6658;53.080;7.428;2023-07-02T02:07:22;7.17;;;4.17;;
13185;SDS011;6658;53.080;7.428;2023-07-02T02:10:06;7.90;;;4.10;;
13185;SDS011;6658;53.080;7.428;2023-07-02T02:12:43;8.60;;;4.30;;
13185;SDS011;6658;53.080;7.428;2023-07-02T02:15:11;7.13;;;4.80;;
13185;SDS011;6658;53.080;7.428;2023-07-02T02:17:39;7.30;;;4.43;;
13185;SDS011;6658;53.080;7.428;2023-07-02T02:20:11;9.07;;;5.03;;
13185;SDS011;6658;53.080;7.428;2023-07-02T02:25:49;8.20;;;4.90;;
13185;SDS011;6658;53.080;7.428;2023-07-02T02:29:11;8.67;;;4.33;;
13185;SDS011;6658;53.080;7.428;2023-07-02T02:31:55;6.83;;;4.27;;
13185;SDS011;6658;53.080;7.428;2023-07-02T02:34:26;7.27;;;4.90;;
13185;SDS011;6658;53.080;7.428;2023-07-02T02:37:10;10.50;;;4.80;;
13185;SDS011;6658;53.080;7.428;2023-07-02T02:40:15;8.57;;;4.70;;
13185;SDS011;6658;53.080;7.428;2023-07-02T02:49:41;8.40;;;4.60;;
13185;SDS011;6658;53.080;7.428;2023-07-02T02:59:11;9.70;;;5.17;;
13185;SDS011;6658;53.080;7.428;2023-07-02T03:07:53;8.60;;;4.93;;
13185;SDS011;6658;53.080;7.428;2023-07-02T03:10:43;7.13;;;4.80;;
13185;SDS011;6658;53.080;7.428;2023-07-02T03:17:08;11.57;;;5.90;;
13185;SDS011;6658;53.080;7.428;2023-07-02T03:19:37;7.90;;;5.20;;
13185;SDS011;6658;53.080;7.428;2023-07-02T03:22:03;8.23;;;4.70;;
13185;SDS011;6658;53.080;7.428;2023-07-02T03:24:29;8.73;;;5.47;;
13185;SDS011;6658;53.080;7.428;2023-07-02T03:26:58;8.63;;;5.40;;
13185;SDS011;6658;53.080;7.428;2023-07-02T03:29:36;10.67;;;5.40;;
13185;SDS011;6658;53.080;7.428;2023-07-02T03:32:03;9.63;;;5.03;;
13185;SDS011;6658;53.080;7.428;2023-07-02T03:34:29;10.23;;;5.50;;
13185;SDS011;6658;53.080;7.428;2023-07-02T03:39:59;9.27;;;5.40;;
13185;SDS011;6658;53.080;7.428;2023-07-02T03:42:24;9.47;;;5.43;;
13185;SDS011;6658;53.080;7.428;2023-07-02T03:44:53;9.83;;;5.43;;
13185;SDS011;6658;53.080;7.428;2023-07-02T03:47:25;10.90;;;5.60;;
13185;SDS011;6658;53.080;7.428;2023-07-02T03:49:56;10.13;;;5.40;;
13185;SDS011;6658;53.080;7.428;2023-07-02T03:55:25;9.33;;;5.53;;
13185;SDS011;6658;53.080;7.428;2023-07-02T03:57:51;10.00;;;5.47;;
13185;SDS011;6658;53.080;7.428;2023-07-02T04:00:16;10.83;;;5.40;;
13185;SDS011;6658;53.080;7.428;2023-07-02T04:02:45;10.13;;;5.80;;
13185;SDS011;6658;53.080;7.428;2023-07-02T04:05:11;10.23;;;5.23;;
13185;SDS011;6658;53.080;7.428;2023-07-02T04:07:36;10.47;;;5.60;;
13185;SDS011;6658;53.080;7.428;2023-07-02T04:10:02;8.73;;;4.60;;
13185;SDS011;6658;53.080;7.428;2023-07-02T04:12:31;11.00;;;6.07;;
13185;SDS011;6658;53.080;7.428;2023-07-02T04:18:23;8.63;;;5.20;;
13185;SDS011;6658;53.080;7.428;2023-07-02T04:20:55;9.43;;;5.30;;
13185;SDS011;6658;53.080;7.428;2023-07-02T04:23:21;11.07;;;5.77;;
13185;SDS011;6658;53.080;7.428;2023-07-02T04:25:47;8.77;;;5.40;;
13185;SDS011;6658;53.080;7.428;2023-07-02T04:28:18;10.57;;;5.80;;
13185;SDS011;6658;53.080;7.428;2023-07-02T04:30:44;10.03;;;4.97;;
13185;SDS011;6658;53.080;7.428;2023-07-02T04:33:14;9.90;;;4.90;;
13185;SDS011;6658;53.080;7.428;2023-07-02T04:35:40;11.33;;;5.53;;
13185;SDS011;6658;53.080;7.428;2023-07-02T04:38:06;9.93;;;5.73;;
13185;SDS011;6658;53.080;7.428;2023-07-02T04:40:33;11.43;;;5.40;;
13185;SDS011;6658;53.080;7.428;2023-07-02T04:42:58;10.93;;;5.23;;
13185;SDS011;6658;53.080;7.428;2023-07-02T04:45:24;11.07;;;5.47;;
13185;SDS011;6658;53.080;7.428;2023-07-02T04:47:51;7.90;;;5.00;;
13185;SDS011;6658;53.080;7.428;2023-07-02T04:50:18;8.73;;;5.70;;
13185;SDS011;6658;53.080;7.428;2023-07-02T04:52:44;9.73;;;5.37;;
13185;SDS011;6658;53.080;7.428;2023-07-02T04:55:10;10.70;;;5.27;;
13185;SDS011;6658;53.080;7.428;2023-07-02T04:57:36;12.40;;;5.23;;
13185;SDS011;6658;53.080;7.428;2023-07-02T05:00:03;11.20;;;5.17;;
13185;SDS011;6658;53.080;7.428;2023-07-02T05:02:31;7.97;;;5.23;;
13185;SDS011;6658;53.080;7.428;2023-07-02T05:05:18;9.33;;;5.70;;
13185;SDS011;6658;53.080;7.428;2023-07-02T05:07:43;9.27;;;5.23;;
13185;SDS011;6658;53.080;7.428;2023-07-02T05:10:16;7.80;;;4.97;;
13185;SDS011;6658;53.080;7.428;2023-07-02T05:12:42;8.50;;;5.17;;
13185;SDS011;6658;53.080;7.428;2023-07-02T05:15:08;9.33;;;5.47;;
13185;SDS011;6658;53.080;7.428;2023-07-02T05:17:34;11.00;;;5.30;;
13185;SDS011;6658;53.080;7.428;2023-07-02T05:20:02;9.07;;;5.60;;
13185;SDS011;6658;53.080;7.428;2023-07-02T05:22:29;8.60;;;5.90;;
13185;SDS011;6658;53.080;7.428;2023-07-02T05:24:55;9.80;;;5.33;;
13185;SDS011;6658;53.080;7.428;2023-07-02T05:27:21;9.50;;;5.10;;
13185;SDS011;6658;53.080;7.428;2023-07-02T05:29:47;11.37;;;5.57;;
13185;SDS011;6658;53.080;7.428;2023-07-02T05:32:15;8.40;;;5.23;;
13185;SDS011;6658;53.080;7.428;2023-07-02T05:34:41;9.23;;;5.40;;
13185;SDS011;6658;53.080;7.428;2023-07-02T05:37:07;11.17;;;5.37;;
13185;SDS011;6658;53.080;7.428;2023-07-02T05:39:33;9.60;;;5.20;;
13185;SDS011;6658;53.080;7.428;2023-07-02T05:41:59;11.80;;;5.73;;
13185;SDS011;6658;53.080;7.428;2023-07-02T05:47:02;7.97;;;5.23;;
13185;SDS011;6658;53.080;7.428;2023-07-02T05:49:28;9.77;;;5.63;;
13185;SDS011;6658;53.080;7.428;2023-07-02T05:51:54;9.07;;;5.20;;
13185;SDS011;6658;53.080;7.428;2023-07-02T05:54:19;9.80;;;5.47;;
13185;SDS011;6658;53.080;7.428;2023-07-02T05:56:45;8.17;;;5.13;;
13185;SDS011;6658;53.080;7.428;2023-07-02T05:59:14;8.43;;;4.50;;
13185;SDS011;6658;53.080;7.428;2023-07-02T06:01:43;10.00;;;5.30;;
13185;SDS011;6658;53.080;7.428;2023-07-02T06:04:10;11.10;;;5.40;;
13185;SDS011;6658;53.080;7.428;2023-07-02T06:06:35;9.00;;;4.83;;
13185;SDS011;6658;53.080;7.428;2023-07-02T06:09:01;10.50;;;5.37;;
13185;SDS011;6658;53.080;7.428;2023-07-02T06:11:27;10.07;;;4.90;;
13185;SDS011;6658;53.080;7.428;2023-07-02T06:13:53;8.73;;;5.00;;
13185;SDS011;6658;53.080;7.428;2023-07-02T06:16:20;8.30;;;4.43;;
13185;SDS011;6658;53.080;7.428;2023-07-02T06:18:48;10.30;;;5.10;;
13185;SDS011;6658;53.080;7.428;2023-07-02T06:21:14;6.70;;;4.93;;
13185;SDS011;6658;53.080;7.428;2023-07-02T06:23:43;6.40;;;4.30;;
13185;SDS011;6658;53.080;7.428;2023-07-02T06:26:12;6.07;;;4.23;;
13185;SDS011;6658;53.080;7.428;2023-07-02T06:28:38;6.97;;;4.30;;
13185;SDS011;6658;53.080;7.428;2023-07-02T06:31:04;9.30;;;4.90;;
13185;SDS011;6658;53.080;7.428;2023-07-02T06:33:29;7.77;;;4.47;;
13185;SDS011;6658;53.080;7.428;2023-07-02T06:35:55;9.00;;;4.50;;
13185;SDS011;6658;53.080;7.428;2023-07-02T06:38:21;8.33;;;4.50;;
13185;SDS011;6658;53.080;7.428;2023-07-02T06:40:46;7.40;;;4.40;;
13185;SDS011;6658;53.080;7.428;2023-07-02T06:43:12;8.23;;;4.73;;
13185;SDS011;6658;53.080;7.428;2023-07-02T06:45:38;7.60;;;4.30;;
13185;SDS011;6658;53.080;7.428;2023-07-02T06:48:04;8.93;;;4.43;;
13185;SDS011;6658;53.080;7.428;2023-07-02T06:50:32;8.23;;;4.33;;
13185;SDS011;6658;53.080;7.428;2023-07-02T06:52:57;8.17;;;4.63;;
13185;SDS011;6658;53.080;7.428;2023-07-02T06:55:23;6.53;;;4.07;;
13185;SDS011;6658;53.080;7.428;2023-07-02T06:57:49;8.07;;;4.20;;
13185;SDS011;6658;53.080;7.428;2023-07-02T07:00:15;7.43;;;4.83;;
13185;SDS011;6658;53.080;7.428;2023-07-02T07:02:41;7.37;;;4.20;;
13185;SDS011;6658;53.080;7.428;2023-07-02T07:05:07;7.73;;;4.00;;
13185;SDS011;6658;53.080;7.428;2023-07-02T07:07:36;8.50;;;4.17;;
13185;SDS011;6658;53.080;7.428;2023-07-02T07:10:01;6.03;;;3.80;;
13185;SDS011;6658;53.080;7.428;2023-07-02T07:12:28;10.40;;;4.07;;
13185;SDS011;6658;53.080;7.428;2023-07-02T07:14:57;5.60;;;3.40;;
13185;SDS011;6658;53.080;7.428;2023-07-02T07:17:23;8.10;;;3.70;;
13185;SDS011;6658;53.080;7.428;2023-07-02T07:19:49;7.30;;;4.10;;
13185;SDS011;6658;53.080;7.428;2023-07-02T07:22:14;6.27;;;3.40;;
13185;SDS011;6658;53.080;7.428;2023-07-02T07:24:41;6.87;;;4.27;;
13185;SDS011;6658;53.080;7.428;2023-07-02T07:27:07;7.50;;;3.47;;
13185;SDS011;6658;53.080;7.428;2023-07-02T07:29:33;7.80;;;4.10;;
13185;SDS011;6658;53.080;7.428;2023-07-02T07:31:58;7.37;;;3.90;;
13185;SDS011;6658;53.080;7.428;2023-07-02T07:34:24;6.83;;;3.57;;
13185;SDS011;6658;53.080;7.428;2023-07-02T07:36:50;5.70;;;3.20;;
13185;SDS011;6658;53.080;7.428;2023-07-02T07:39:16;7.23;;;3.57;;
13185;SDS011;6658;53.080;7.428;2023-07-02T07:41:45;7.77;;;3.13;;
13185;SDS011;6658;53.080;7.428;2023-07-02T07:44:13;8.13;;;3.40;;
13185;SDS011;6658;53.080;7.428;2023-07-02T07:46:39;6.50;;;3.43;;
13185;SDS011;6658;53.080;7.428;2023-07-02T07:49:07;5.80;;;3.20;;
13185;SDS011;6658;53.080;7.428;2023-07-02T07:51:33;9.90;;;4.43;;
13185;SDS011;6658;53.080;7.428;2023-07-02T07:54:03;5.83;;;3.40;;
13185;SDS011;6658;53.080;7.428;2023-07-02T07:56:32;9.83;;;4.07;;
13185;SDS011;6658;53.080;7.428;2023-07-02T07:58:58;5.30;;;3.07;;
13185;SDS011;6658;53.080;7.428;2023-07-02T08:01:25;6.57;;;3.63;;
13185;SDS011;6658;53.080;7.428;2023-07-02T08:03:52;5.87;;;3.30;;
13185;SDS011;6658;53.080;7.428;2023-07-02T08:06:18;5.63;;;3.20;;
13185;SDS011;6658;53.080;7.428;2023-07-02T08:08:44;9.33;;;3.67;;
13185;SDS011;6658;53.080;7.428;2023-07-02T08:11:09;6.07;;;3.23;;
13185;SDS011;6658;53.080;7.428;2023-07-02T08:13:36;4.67;;;2.80;;
13185;SDS011;6658;53.080;7.428;2023-07-02T08:16:02;5.37;;;2.47;;
13185;SDS011;6658;53.080;7.428;2023-07-02T08:18:28;5.20;;;3.00;;
13185;SDS011;6658;53.080;7.428;2023-07-02T08:20:57;5.03;;;3.13;;
13185;SDS011;6658;53.080;7.428;2023-07-02T08:23:23;5.93;;;2.70;;
13185;SDS011;6658;53.080;7.428;2023-07-02T08:25:49;5.70;;;2.77;;
13185;SDS011;6658;53.080;7.428;2023-07-02T08:28:18;6.17;;;2.83;;
13185;SDS011;6658;53.080;7.428;2023-07-02T08:30:43;4.30;;;2.50;;
13185;SDS011;6658;53.080;7.428;2023-07-02T08:33:09;5.43;;;2.50;;
13185;SDS011;6658;53.080;7.428;2023-07-02T08:35:38;5.60;;;2.70;;
13185;SDS011;6658;53.080;7.428;2023-07-02T08:38:04;4.30;;;2.20;;
13185;SDS011;6658;53.080;7.428;2023-07-02T08:40:32;5.63;;;2.30;;
13185;SDS011;6658;53.080;7.428;2023-07-02T08:42:58;3.27;;;2.20;;
13185;SDS011;6658;53.080;7.428;2023-07-02T08:45:29;4.30;;;2.00;;
13185;SDS011;6658;53.080;7.428;2023-07-02T08:47:55;2.50;;;1.87;;
13185;SDS011;6658;53.080;7.428;2023-07-02T08:50:23;4.47;;;2.37;;
13185;SDS011;6658;53.080;7.428;2023-07-02T08:52:49;3.27;;;1.80;;
13185;SDS011;6658;53.080;7.428;2023-07-02T08:55:15;6.37;;;2.57;;
13185;SDS011;6658;53.080;7.428;2023-07-02T08:57:52;2.43;;;1.57;;
13185;SDS011;6658;53.080;7.428;2023-07-02T09:00:19;6.03;;;2.47;;
13185;SDS011;6658;53.080;7.428;2023-07-02T09:02:46;3.23;;;1.90;;
13185;SDS011;6658;53.080;7.428;2023-07-02T09:05:12;7.17;;;2.07;;
13185;SDS011;6658;53.080;7.428;2023-07-02T09:07:47;5.60;;;1.90;;
13185;SDS011;6658;53.080;7.428;2023-07-02T09:10:25;3.73;;;1.90;;
13185;SDS011;6658;53.080;7.428;2023-07-02T09:13:05;3.43;;;2.00;;
13185;SDS011;6658;53.080;7.428;2023-07-02T09:15:38;4.50;;;1.90;;
13185;SDS011;6658;53.080;7.428;2023-07-02T09:18:20;4.83;;;1.63;;
13185;SDS011;6658;53.080;7.428;2023-07-02T09:20:49;3.53;;;1.97;;
13185;SDS011;6658;53.080;7.428;2023-07-02T09:23:19;4.40;;;2.13;;
13185;SDS011;6658;53.080;7.428;2023-07-02T09:25:45;5.23;;;2.60;;
13185;SDS011;6658;53.080;7.428;2023-07-02T09:28:18;3.57;;;2.10;;
13185;SDS011;6658;53.080;7.428;2023-07-02T09:30:51;5.67;;;2.40;;
13185;SDS011;6658;53.080;7.428;2023-07-02T09:33:23;3.97;;;2.27;;
13185;SDS011;6658;53.080;7.428;2023-07-02T09:35:56;4.53;;;2.33;;
13185;SDS011;6658;53.080;7.428;2023-07-02T09:38:22;4.03;;;1.87;;
13185;SDS011;6658;53.080;7.428;2023-07-02T09:40:54;5.03;;;2.80;;
13185;SDS011;6658;53.080;7.428;2023-07-02T09:43:20;7.33;;;2.50;;
13185;SDS011;6658;53.080;7.428;2023-07-02T09:45:47;3.63;;;2.33;;
13185;SDS011;6658;53.080;7.428;2023-07-02T09:48:18;4.43;;;2.47;;
13185;SDS011;6658;53.080;7.428;2023-07-02T09:50:50;5.00;;;2.37;;
13185;SDS011;6658;53.080;7.428;2023-07-02T09:53:26;5.07;;;2.50;;
13185;SDS011;6658;53.080;7.428;2023-07-02T09:55:53;6.67;;;3.17;;
13185;SDS011;6658;53.080;7.428;2023-07-02T09:58:19;6.57;;;2.90;;
13185;SDS011;6658;53.080;7.428;2023-07-02T10:00:47;5.03;;;2.33;;
13185;SDS011;6658;53.080;7.428;2023-07-02T10:03:13;5.10;;;2.47;;
13185;SDS011;6658;53.080;7.428;2023-07-02T10:05:39;5.10;;;2.27;;
13185;SDS011;6658;53.080;7.428;2023-07-02T10:08:13;5.00;;;2.40;;
13185;SDS011;6658;53.080;7.428;2023-07-02T10:10:40;4.60;;;2.70;;
13185;SDS011;6658;53.080;7.428;2023-07-02T10:13:06;6.10;;;2.43;;
13185;SDS011;6658;53.080;7.428;2023-07-02T10:15:34;6.20;;;2.67;;
13185;SDS011;6658;53.080;7.428;2023-07-02T10:18:06;9.07;;;2.93;;
13185;SDS011;6658;53.080;7.428;2023-07-02T10:23:02;7.80;;;2.80;;
13185;SDS011;6658;53.080;7.428;2023-07-02T10:25:35;8.27;;;3.13;;
13185;SDS011;6658;53.080;7.428;2023-07-02T10:30:41;7.67;;;3.33;;
13185;SDS011;6658;53.080;7.428;2023-07-02T10:35:34;8.50;;;3.53;;
13185;SDS011;6658;53.080;7.428;2023-07-02T10:38:00;6.20;;;2.87;;
13185;SDS011;6658;53.080;7.428;2023-07-02T10:40:26;4.67;;;2.67;;
13185;SDS011;6658;53.080;7.428;2023-07-02T10:42:55;6.93;;;3.00;;
13185;SDS011;6658;53.080;7.428;2023-07-02T10:45:30;4.50;;;2.67;;
13185;SDS011;6658;53.080;7.428;2023-07-02T10:47:56;6.03;;;2.83;;
13185;SDS011;6658;53.080;7.428;2023-07-02T10:50:22;4.17;;;2.40;;
13185;SDS011;6658;53.080;7.428;2023-07-02T10:52:48;5.40;;;2.90;;
13185;SDS011;6658;53.080;7.428;2023-07-02T10:55:20;5.90;;;2.57;;
13185;SDS011;6658;53.080;7.428;2023-07-02T10:57:47;4.47;;;2.50;;
13185;SDS011;6658;53.080;7.428;2023-07-02T11:00:15;3.47;;;1.97;;
13185;SDS011;6658;53.080;7.428;2023-07-02T11:02:42;4.97;;;2.30;;
13185;SDS011;6658;53.080;7.428;2023-07-02T11:05:08;5.73;;;2.50;;
13185;SDS011;6658;53.080;7.428;2023-07-02T11:07:37;4.23;;;2.03;;
13185;SDS011;6658;53.080;7.428;2023-07-02T11:10:04;5.60;;;2.60;;
13185;SDS011;6658;53.080;7.428;2023-07-02T11:12:34;3.63;;;2.00;;
13185;SDS011;6658;53.080;7.428;2023-07-02T11:17:35;9.00;;;2.93;;
13185;SDS011;6658;53.080;7.428;2023-07-02T11:20:01;4.27;;;1.93;;
13185;SDS011;6658;53.080;7.428;2023-07-02T11:22:33;5.07;;;2.50;;
13185;SDS011;6658;53.080;7.428;2023-07-02T11:27:37;6.57;;;2.40;;
13185;SDS011;6658;53.080;7.428;2023-07-02T11:30:03;5.53;;;2.67;;
13185;SDS011;6658;53.080;7.428;2023-07-02T11:32:30;6.40;;;2.40;;
13185;SDS011;6658;53.080;7.428;2023-07-02T11:34:56;4.13;;;2.40;;
13185;SDS011;6658;53.080;7.428;2023-07-02T11:37:22;5.07;;;1.90;;
13185;SDS011;6658;53.080;7.428;2023-07-02T11:39:48;3.63;;;2.53;;
13185;SDS011;6658;53.080;7.428;2023-07-02T11:42:13;3.60;;;2.33;;
13185;SDS011;6658;53.080;7.428;2023-07-02T11:44:40;7.47;;;2.30;;
13185;SDS011;6658;53.080;7.428;2023-07-02T11:47:05;6.70;;;2.60;;
13185;SDS011;6658;53.080;7.428;2023-07-02T11:49:31;4.80;;;2.23;;
13185;SDS011;6658;53.080;7.428;2023-07-02T11:51:57;4.47;;;2.50;;
13185;SDS011;6658;53.080;7.428;2023-07-02T11:54:23;5.37;;;2.40;;
13185;SDS011;6658;53.080;7.428;2023-07-02T11:56:49;7.80;;;2.87;;
13185;SDS011;6658;53.080;7.428;2023-07-02T11:59:14;4.50;;;2.37;;
13185;SDS011;6658;53.080;7.428;2023-07-02T12:01:49;3.73;;;2.00;;
13185;SDS011;6658;53.080;7.428;2023-07-02T12:04:15;5.43;;;2.10;;
13185;SDS011;6658;53.080;7.428;2023-07-02T12:06:41;3.17;;;1.80;;
13185;SDS011;6658;53.080;7.428;2023-07-02T12:09:07;4.17;;;1.70;;
13185;SDS011;6658;53.080;7.428;2023-07-02T12:11:32;3.90;;;1.53;;
13185;SDS011;6658;53.080;7.428;2023-07-02T12:14:01;7.20;;;2.33;;
13185;SDS011;6658;53.080;7.428;2023-07-02T12:16:27;3.80;;;2.03;;
13185;SDS011;6658;53.080;7.428;2023-07-02T12:18:58;5.33;;;2.40;;
13185;SDS011;6658;53.080;7.428;2023-07-02T12:21:24;4.33;;;2.30;;
13185;SDS011;6658;53.080;7.428;2023-07-02T12:23:50;2.93;;;1.93;;
13185;SDS011;6658;53.080;7.428;2023-07-02T12:26:19;4.20;;;2.37;;
13185;SDS011;6658;53.080;7.428;2023-07-02T12:28:44;3.20;;;2.27;;
13185;SDS011;6658;53.080;7.428;2023-07-02T12:31:10;4.00;;;2.33;;
13185;SDS011;6658;53.080;7.428;2023-07-02T12:33:37;3.63;;;2.07;;
13185;SDS011;6658;53.080;7.428;2023-07-02T12:36:03;7.40;;;2.57;;
13185;SDS011;6658;53.080;7.428;2023-07-02T12:38:30;5.20;;;2.40;;
13185;SDS011;6658;53.080;7.428;2023-07-02T12:40:55;5.83;;;2.43;;
13185;SDS011;6658;53.080;7.428;2023-07-02T12:43:21;4.10;;;1.83;;
13185;SDS011;6658;53.080;7.428;2023-07-02T12:45:47;5.13;;;2.20;;
13185;SDS011;6658;53.080;7.428;2023-07-02T12:48:13;4.77;;;2.10;;
13185;SDS011;6658;53.080;7.428;2023-07-02T12:50:38;4.23;;;2.03;;
13185;SDS011;6658;53.080;7.428;2023-07-02T12:53:04;5.10;;;1.90;;
13185;SDS011;6658;53.080;7.428;2023-07-02T12:55:31;3.43;;;2.00;;
13185;SDS011;6658;53.080;7.428;2023-07-02T12:57:57;3.53;;;2.20;;
13185;SDS011;6658;53.080;7.428;2023-07-02T13:00:26;4.50;;;2.20;;
13185;SDS011;6658;53.080;7.428;2023-07-02T13:02:51;3.63;;;1.80;;
13185;SDS011;6658;53.080;7.428;2023-07-02T13:05:20;3.77;;;1.90;;
13185;SDS011;6658;53.080;7.428;2023-07-02T13:07:45;3.40;;;1.90;;
13185;SDS011;6658;53.080;7.428;2023-07-02T13:10:11;2.17;;;1.63;;
13185;SDS011;6658;53.080;7.428;2023-07-02T13:12:37;3.90;;;1.87;;
13185;SDS011;6658;53.080;7.428;2023-07-02T13:15:03;3.67;;;2.30;;
13185;SDS011;6658;53.080;7.428;2023-07-02T13:17:29;3.87;;;2.07;;
13185;SDS011;6658;53.080;7.428;2023-07-02T13:19:54;3.13;;;2.03;;
13185;SDS011;6658;53.080;7.428;2023-07-02T13:22:21;2.20;;;1.50;;
13185;SDS011;6658;53.080;7.428;2023-07-02T13:24:46;3.87;;;1.50;;
13185;SDS011;6658;53.080;7.428;2023-07-02T13:27:13;4.83;;;2.13;;
13185;SDS011;6658;53.080;7.428;2023-07-02T13:29:42;4.30;;;1.70;;
13185;SDS011;6658;53.080;7.428;2023-07-02T13:32:08;2.93;;;1.73;;
13185;SDS011;6658;53.080;7.428;2023-07-02T13:34:34;6.10;;;1.77;;
13185;SDS011;6658;53.080;7.428;2023-07-02T13:36:59;5.47;;;1.90;;
13185;SDS011;6658;53.080;7.428;2023-07-02T13:39:27;3.17;;;1.70;;
13185;SDS011;6658;53.080;7.428;2023-07-02T13:41:54;4.27;;;2.00;;
13185;SDS011;6658;53.080;7.428;2023-07-02T13:44:19;3.27;;;1.93;;
13185;SDS011;6658;53.080;7.428;2023-07-02T13:46:45;4.47;;;2.20;;
13185;SDS011;6658;53.080;7.428;2023-07-02T13:49:12;4.73;;;1.87;;
13185;SDS011;6658;53.080;7.428;2023-07-02T13:51:38;4.90;;;2.30;;
13185;SDS011;6658;53.080;7.428;2023-07-02T13:54:12;3.93;;;1.90;;
13185;SDS011;6658;53.080;7.428;2023-07-02T13:56:39;4.80;;;2.30;;
13185;SDS011;6658;53.080;7.428;2023-07-02T13:59:05;4.67;;;2.10;;
13185;SDS011;6658;53.080;7.428;2023-07-02T14:01:31;5.13;;;2.80;;
13185;SDS011;6658;53.080;7.428;2023-07-02T14:03:58;5.40;;;2.40;;
13185;SDS011;6658;53.080;7.428;2023-07-02T14:06:25;2.80;;;1.97;;
13185;SDS011;6658;53.080;7.428;2023-07-02T14:08:51;4.23;;;2.43;;
13185;SDS011;6658;53.080;7.428;2023-07-02T14:11:17;4.67;;;2.13;;
13185;SDS011;6658;53.080;7.428;2023-07-02T14:13:43;3.93;;;2.30;;
13185;SDS011;6658;53.080;7.428;2023-07-02T14:16:09;5.40;;;2.83;;
13185;SDS011;6658;53.080;7.428;2023-07-02T14:18:35;5.70;;;2.77;;
13185;SDS011;6658;53.080;7.428;2023-07-02T14:21:01;5.87;;;3.07;;
13185;SDS011;6658;53.080;7.428;2023-07-02T14:23:28;4.77;;;2.90;;
13185;SDS011;6658;53.080;7.428;2023-07-02T14:25:54;4.13;;;2.30;;
13185;SDS011;6658;53.080;7.428;2023-07-02T14:28:20;6.77;;;3.13;;
13185;SDS011;6658;53.080;7.428;2023-07-02T14:30:45;3.83;;;2.40;;
13185;SDS011;6658;53.080;7.428;2023-07-02T14:33:12;4.43;;;3.00;;
13185;SDS011;6658;53.080;7.428;2023-07-02T14:35:38;4.60;;;3.00;;
13185;SDS011;6658;53.080;7.428;2023-07-02T14:38:07;5.30;;;2.83;;
13185;SDS011;6658;53.080;7.428;2023-07-02T14:40:36;6.90;;;3.07;;
13185;SDS011;6658;53.080;7.428;2023-07-02T14:43:01;5.23;;;3.43;;
13185;SDS011;6658;53.080;7.428;2023-07-02T14:45:29;4.00;;;2.70;;
13185;SDS011;6658;53.080;7.428;2023-07-02T14:47:54;6.53;;;3.53;;
13185;SDS011;6658;53.080;7.428;2023-07-02T14:50:24;7.20;;;3.00;;
13185;SDS011;6658;53.080;7.428;2023-07-02T14:52:55;7.37;;;2.90;;
13185;SDS011;6658;53.080;7.428;2023-07-02T14:55:21;5.50;;;3.10;;
13185;SDS011;6658;53.080;7.428;2023-07-02T14:57:46;4.23;;;2.80;;
13185;SDS011;6658;53.080;7.428;2023-07-02T15:00:12;5.73;;;3.33;;
13185;SDS011;6658;53.080;7.428;2023-07-02T15:02:38;4.00;;;2.87;;
13185;SDS011;6658;53.080;7.428;2023-07-02T15:05:04;5.70;;;3.30;;
13185;SDS011;6658;53.080;7.428;2023-07-02T15:07:30;5.63;;;3.23;;
13185;SDS011;6658;53.080;7.428;2023-07-02T15:09:55;6.83;;;2.97;;
13185;SDS011;6658;53.080;7.428;2023-07-02T15:12:23;4.73;;;3.43;;
13185;SDS011;6658;53.080;7.428;2023-07-02T15:14:51;6.63;;;3.50;;
13185;SDS011;6658;53.080;7.428;2023-07-02T15:17:17;6.60;;;3.47;;
13185;SDS011;6658;53.080;7.428;2023-07-02T15:19:43;4.63;;;2.97;;
13185;SDS011;6658;53.080;7.428;2023-07-02T15:22:09;4.30;;;3.23;;
13185;SDS011;6658;53.080;7.428;2023-07-02T15:24:40;3.87;;;2.83;;
13185;SDS011;6658;53.080;7.428;2023-07-02T15:27:06;6.97;;;3.20;;
13185;SDS011;6658;53.080;7.428;2023-07-02T15:29:32;6.40;;;3.30;;
13185;SDS011;6658;53.080;7.428;2023-07-02T15:31:58;5.93;;;3.20;;
13185;SDS011;6658;53.080;7.428;2023-07-02T15:34:24;4.33;;;3.03;;
13185;SDS011;6658;53.080;7.428;2023-07-02T15:36:49;4.13;;;3.20;;
13185;SDS011;6658;53.080;7.428;2023-07-02T15:39:15;6.10;;;3.50;;
13185;SDS011;6658;53.080;7.428;2023-07-02T15:41:47;5.67;;;3.17;;
13185;SDS011;6658;53.080;7.428;2023-07-02T15:44:13;5.13;;;3.10;;
13185;SDS011;6658;53.080;7.428;2023-07-02T15:46:39;4.77;;;3.43;;
13185;SDS011;6658;53.080;7.428;2023-07-02T15:49:05;5.17;;;2.67;;
13185;SDS011;6658;53.080;7.428;2023-07-02T15:51:32;4.43;;;3.03;;
13185;SDS011;6658;53.080;7.428;2023-07-02T15:54:04;5.20;;;3.10;;
13185;SDS011;6658;53.080;7.428;2023-07-02T15:56:32;5.70;;;3.30;;
13185;SDS011;6658;53.080;7.428;2023-07-02T15:58:59;6.60;;;3.67;;
13185;SDS011;6658;53.080;7.428;2023-07-02T16:01:25;7.13;;;3.13;;
13185;SDS011;6658;53.080;7.428;2023-07-02T16:03:52;6.80;;;3.10;;
13185;SDS011;6658;53.080;7.428;2023-07-02T16:06:18;5.50;;;3.00;;
13185;SDS011;6658;53.080;7.428;2023-07-02T16:08:44;5.23;;;3.27;;
13185;SDS011;6658;53.080;7.428;2023-07-02T16:11:10;6.13;;;3.30;;
13185;SDS011;6658;53.080;7.428;2023-07-02T16:13:38;4.37;;;3.20;;